sensor_id;sensor_type;location;lat;lon;timestamp;P1;durP1;ratioP1;P2;durP2;ratioP2
9052;SDS011;4561;47.450;7.516;2023-03-03T00:00:25;64.13;;;44.83;;
9052;SDS011;4561;47.450;7.516;2023-03-03T00:03:48;60.90;;;43.27;;
9052;SDS011;4561;47.450;7.516;2023-03-03T00:07:11;59.23;;;43.97;;
9052;SDS011;4561;47.450;7.516;2023-03-03T00:10:31;69.70;;;47.70;;
9052;SDS011;4561;47.450;7.516;2023-03-03T00:13:53;69.77;;;48.73;;
9052;SDS011;4561;47.450;7.516;2023-03-03T00:17:20;74.63;;;51.17;;
9052;SDS011;4561;47.450;7.516;2023-03-03T00:20:49;75.90;;;49.60;;
9052;SDS011;4561;47.450;7.516;2023-03-03T00:27:35;64.63;;;46.80;;
9052;SDS011;4561;47.450;7.516;2023-03-03T00:30:59;71.53;;;49.07;;
9052;SDS011;4561;47.450;7.516;2023-03-03T00:34:24;74.67;;;49.17;;
9052;SDS011;4561;47.450;7.516;2023-03-03T00:37:46;73.27;;;49.13;;
9052;SDS011;4561;47.450;7.516;2023-03-03T00:44:46;76.07;;;52.40;;
9052;SDS011;4561;47.450;7.516;2023-03-03T00:48:18;77.03;;;51.60;;
9052;SDS011;4561;47.450;7.516;2023-03-03T00:51:43;74.20;;;52.70;;
9052;SDS011;4561;47.450;7.516;2023-03-03T00:55:06;76.43;;;52.13;;
9052;SDS011;4561;47.450;7.516;2023-03-03T00:58:27;79.33;;;51.40;;
9052;SDS011;4561;47.450;7.516;2023-03-03T01:01:48;69.47;;;50.80;;
9052;SDS011;4561;47.450;7.516;2023-03-03T01:05:08;69.30;;;49.53;;
9052;SDS011;4561;47.450;7.516;2023-03-03T01:08:30;69.63;;;49.87;;
9052;SDS011;4561;47.450;7.516;2023-03-03T01:11:50;80.23;;;51.77;;
9052;SDS011;4561;47.450;7.516;2023-03-03T01:15:12;77.47;;;51.70;;
9052;SDS011;4561;47.450;7.516;2023-03-03T01:18:35;71.00;;;50.17;;
9052;SDS011;4561;47.450;7.516;2023-03-03T01:21:59;77.37;;;51.00;;
9052;SDS011;4561;47.450;7.516;2023-03-03T01:25:19;72.10;;;51.00;;
9052;SDS011;4561;47.450;7.516;2023-03-03T01:28:40;71.27;;;49.93;;
9052;SDS011;4561;47.450;7.516;2023-03-03T01:32:00;69.37;;;49.47;;
9052;SDS011;4561;47.450;7.516;2023-03-03T01:35:23;68.47;;;49.40;;
9052;SDS011;4561;47.450;7.516;2023-03-03T01:38:43;68.73;;;48.73;;
9052;SDS011;4561;47.450;7.516;2023-03-03T01:42:04;70.60;;;51.03;;
9052;SDS011;4561;47.450;7.516;2023-03-03T01:45:28;75.47;;;50.67;;
9052;SDS011;4561;47.450;7.516;2023-03-03T01:48:55;76.70;;;52.07;;
9052;SDS011;4561;47.450;7.516;2023-03-03T01:52:30;73.40;;;50.93;;
9052;SDS011;4561;47.450;7.516;2023-03-03T01:55:55;72.53;;;52.53;;
9052;SDS011;4561;47.450;7.516;2023-03-03T01:59:20;67.87;;;50.43;;
9052;SDS011;4561;47.450;7.516;2023-03-03T02:02:43;75.73;;;50.07;;
9052;SDS011;4561;47.450;7.516;2023-03-03T02:06:08;68.93;;;49.10;;
9052;SDS011;4561;47.450;7.516;2023-03-03T02:13:01;67.63;;;50.23;;
9052;SDS011;4561;47.450;7.516;2023-03-03T02:16:21;67.73;;;46.40;;
9052;SDS011;4561;47.450;7.516;2023-03-03T02:26:52;70.00;;;48.37;;
9052;SDS011;4561;47.450;7.516;2023-03-03T02:30:18;65.33;;;45.83;;
9052;SDS011;4561;47.450;7.516;2023-03-03T02:33:43;68.07;;;47.67;;
9052;SDS011;4561;47.450;7.516;2023-03-03T02:37:07;66.23;;;47.27;;
9052;SDS011;4561;47.450;7.516;2023-03-03T02:40:28;69.10;;;48.27;;
9052;SDS011;4561;47.450;7.516;2023-03-03T02:43:53;69.30;;;47.53;;
9052;SDS011;4561;47.450;7.516;2023-03-03T02:47:26;68.70;;;47.63;;
9052;SDS011;4561;47.450;7.516;2023-03-03T02:50:51;68.77;;;47.70;;
9052;SDS011;4561;47.450;7.516;2023-03-03T02:54:12;65.67;;;46.17;;
9052;SDS011;4561;47.450;7.516;2023-03-03T02:57:33;69.93;;;47.57;;
9052;SDS011;4561;47.450;7.516;2023-03-03T03:00:53;67.20;;;46.07;;
9052;SDS011;4561;47.450;7.516;2023-03-03T03:04:17;71.40;;;49.23;;
9052;SDS011;4561;47.450;7.516;2023-03-03T03:07:38;67.23;;;46.77;;
9052;SDS011;4561;47.450;7.516;2023-03-03T03:10:59;64.07;;;46.70;;
9052;SDS011;4561;47.450;7.516;2023-03-03T03:14:22;67.53;;;48.60;;
9052;SDS011;4561;47.450;7.516;2023-03-03T03:17:42;67.50;;;47.07;;
9052;SDS011;4561;47.450;7.516;2023-03-03T03:21:06;67.63;;;47.73;;
9052;SDS011;4561;47.450;7.516;2023-03-03T03:24:28;66.20;;;46.43;;
9052;SDS011;4561;47.450;7.516;2023-03-03T03:27:48;68.00;;;47.00;;
9052;SDS011;4561;47.450;7.516;2023-03-03T03:31:09;68.33;;;47.07;;
9052;SDS011;4561;47.450;7.516;2023-03-03T03:34:29;65.30;;;46.20;;
9052;SDS011;4561;47.450;7.516;2023-03-03T03:37:52;62.20;;;45.37;;
9052;SDS011;4561;47.450;7.516;2023-03-03T03:41:13;67.60;;;48.50;;
9052;SDS011;4561;47.450;7.516;2023-03-03T03:44:36;67.20;;;48.13;;
9052;SDS011;4561;47.450;7.516;2023-03-03T03:48:04;62.43;;;46.17;;
9052;SDS011;4561;47.450;7.516;2023-03-03T03:51:24;61.83;;;46.77;;
9052;SDS011;4561;47.450;7.516;2023-03-03T03:54:45;60.87;;;46.20;;
9052;SDS011;4561;47.450;7.516;2023-03-03T03:58:07;68.33;;;47.60;;
9052;SDS011;4561;47.450;7.516;2023-03-03T04:01:28;70.60;;;47.33;;
9052;SDS011;4561;47.450;7.516;2023-03-03T04:04:48;68.43;;;48.13;;
9052;SDS011;4561;47.450;7.516;2023-03-03T04:08:09;67.23;;;46.10;;
9052;SDS011;4561;47.450;7.516;2023-03-03T04:11:29;63.17;;;44.80;;
9052;SDS011;4561;47.450;7.516;2023-03-03T04:14:50;62.87;;;45.47;;
9052;SDS011;4561;47.450;7.516;2023-03-03T04:18:10;61.20;;;45.13;;
9052;SDS011;4561;47.450;7.516;2023-03-03T04:21:31;64.17;;;45.70;;
9052;SDS011;4561;47.450;7.516;2023-03-03T04:24:51;68.20;;;48.10;;
9052;SDS011;4561;47.450;7.516;2023-03-03T04:28:15;69.40;;;45.77;;
9052;SDS011;4561;47.450;7.516;2023-03-03T04:31:38;64.77;;;45.53;;
9052;SDS011;4561;47.450;7.516;2023-03-03T04:34:59;66.17;;;46.07;;
9052;SDS011;4561;47.450;7.516;2023-03-03T04:38:20;59.33;;;44.03;;
9052;SDS011;4561;47.450;7.516;2023-03-03T04:41:42;66.63;;;46.57;;
9052;SDS011;4561;47.450;7.516;2023-03-03T04:45:03;61.37;;;44.80;;
9052;SDS011;4561;47.450;7.516;2023-03-03T04:48:24;57.63;;;43.87;;
9052;SDS011;4561;47.450;7.516;2023-03-03T04:51:44;62.07;;;44.80;;
9052;SDS011;4561;47.450;7.516;2023-03-03T04:55:08;59.67;;;42.47;;
9052;SDS011;4561;47.450;7.516;2023-03-03T04:58:29;60.27;;;44.00;;
9052;SDS011;4561;47.450;7.516;2023-03-03T05:01:49;62.23;;;45.40;;
9052;SDS011;4561;47.450;7.516;2023-03-03T05:05:10;64.47;;;43.27;;
9052;SDS011;4561;47.450;7.516;2023-03-03T05:08:30;66.67;;;45.53;;
9052;SDS011;4561;47.450;7.516;2023-03-03T05:11:53;68.13;;;45.70;;
9052;SDS011;4561;47.450;7.516;2023-03-03T05:15:13;61.50;;;45.03;;
9052;SDS011;4561;47.450;7.516;2023-03-03T05:18:36;60.90;;;43.00;;
9052;SDS011;4561;47.450;7.516;2023-03-03T05:21:56;62.33;;;44.13;;
9052;SDS011;4561;47.450;7.516;2023-03-03T05:25:19;59.93;;;44.60;;
9052;SDS011;4561;47.450;7.516;2023-03-03T05:28:41;62.30;;;44.73;;
9052;SDS011;4561;47.450;7.516;2023-03-03T05:32:02;61.80;;;43.30;;
9052;SDS011;4561;47.450;7.516;2023-03-03T05:35:25;58.90;;;42.20;;
9052;SDS011;4561;47.450;7.516;2023-03-03T05:38:47;60.70;;;42.73;;
9052;SDS011;4561;47.450;7.516;2023-03-03T05:42:08;62.97;;;43.90;;
9052;SDS011;4561;47.450;7.516;2023-03-03T05:45:28;59.23;;;43.27;;
9052;SDS011;4561;47.450;7.516;2023-03-03T05:48:48;60.77;;;42.87;;
9052;SDS011;4561;47.450;7.516;2023-03-03T05:52:14;58.53;;;42.60;;
9052;SDS011;4561;47.450;7.516;2023-03-03T05:55:37;58.50;;;42.23;;
9052;SDS011;4561;47.450;7.516;2023-03-03T05:58:57;61.67;;;43.77;;
9052;SDS011;4561;47.450;7.516;2023-03-03T06:02:22;65.07;;;46.23;;
9052;SDS011;4561;47.450;7.516;2023-03-03T06:05:42;74.87;;;50.23;;
9052;SDS011;4561;47.450;7.516;2023-03-03T06:09:03;66.80;;;48.57;;
9052;SDS011;4561;47.450;7.516;2023-03-03T06:12:23;62.47;;;46.23;;
9052;SDS011;4561;47.450;7.516;2023-03-03T06:15:46;63.07;;;47.47;;
9052;SDS011;4561;47.450;7.516;2023-03-03T06:19:07;64.73;;;47.70;;
9052;SDS011;4561;47.450;7.516;2023-03-03T06:22:27;65.40;;;47.40;;
9052;SDS011;4561;47.450;7.516;2023-03-03T06:25:50;68.00;;;49.07;;
9052;SDS011;4561;47.450;7.516;2023-03-03T06:29:11;61.27;;;45.73;;
9052;SDS011;4561;47.450;7.516;2023-03-03T06:32:32;61.33;;;45.77;;
9052;SDS011;4561;47.450;7.516;2023-03-03T06:35:53;61.53;;;44.67;;
9052;SDS011;4561;47.450;7.516;2023-03-03T06:39:16;59.77;;;43.33;;
9052;SDS011;4561;47.450;7.516;2023-03-03T06:42:36;61.07;;;44.10;;
9052;SDS011;4561;47.450;7.516;2023-03-03T06:45:57;59.37;;;43.43;;
9052;SDS011;4561;47.450;7.516;2023-03-03T06:49:17;56.83;;;42.17;;
9052;SDS011;4561;47.450;7.516;2023-03-03T06:52:38;61.20;;;44.87;;
9052;SDS011;4561;47.450;7.516;2023-03-03T06:55:58;60.27;;;43.33;;
9052;SDS011;4561;47.450;7.516;2023-03-03T06:59:20;63.23;;;44.33;;
9052;SDS011;4561;47.450;7.516;2023-03-03T07:02:41;65.67;;;49.23;;
9052;SDS011;4561;47.450;7.516;2023-03-03T07:06:01;70.27;;;51.80;;
9052;SDS011;4561;47.450;7.516;2023-03-03T07:09:35;71.70;;;53.93;;
9052;SDS011;4561;47.450;7.516;2023-03-03T07:12:57;72.40;;;49.60;;
9052;SDS011;4561;47.450;7.516;2023-03-03T07:16:25;65.07;;;49.33;;
9052;SDS011;4561;47.450;7.516;2023-03-03T07:19:46;65.77;;;49.43;;
9052;SDS011;4561;47.450;7.516;2023-03-03T07:23:20;67.43;;;49.27;;
9052;SDS011;4561;47.450;7.516;2023-03-03T07:26:49;66.47;;;48.17;;
9052;SDS011;4561;47.450;7.516;2023-03-03T07:33:38;66.80;;;49.47;;
9052;SDS011;4561;47.450;7.516;2023-03-03T07:37:26;63.83;;;46.93;;
9052;SDS011;4561;47.450;7.516;2023-03-03T07:40:51;69.67;;;49.27;;
9052;SDS011;4561;47.450;7.516;2023-03-03T07:44:20;67.40;;;49.80;;
9052;SDS011;4561;47.450;7.516;2023-03-03T07:47:42;63.17;;;46.97;;
9052;SDS011;4561;47.450;7.516;2023-03-03T07:51:04;66.40;;;47.90;;
9052;SDS011;4561;47.450;7.516;2023-03-03T07:54:34;62.17;;;47.17;;
9052;SDS011;4561;47.450;7.516;2023-03-03T07:57:57;65.87;;;48.03;;
9052;SDS011;4561;47.450;7.516;2023-03-03T08:01:42;63.07;;;46.17;;
9052;SDS011;4561;47.450;7.516;2023-03-03T08:08:46;60.63;;;46.50;;
9052;SDS011;4561;47.450;7.516;2023-03-03T08:15:35;60.60;;;46.10;;
9052;SDS011;4561;47.450;7.516;2023-03-03T08:18:56;63.33;;;47.07;;
9052;SDS011;4561;47.450;7.516;2023-03-03T08:22:18;63.07;;;46.00;;
9052;SDS011;4561;47.450;7.516;2023-03-03T08:25:41;61.13;;;45.27;;
9052;SDS011;4561;47.450;7.516;2023-03-03T08:29:02;59.10;;;44.93;;
9052;SDS011;4561;47.450;7.516;2023-03-03T08:32:23;63.07;;;44.37;;
9052;SDS011;4561;47.450;7.516;2023-03-03T08:35:43;61.83;;;44.63;;
9052;SDS011;4561;47.450;7.516;2023-03-03T08:39:04;59.33;;;44.33;;
9052;SDS011;4561;47.450;7.516;2023-03-03T08:42:28;59.27;;;44.33;;
9052;SDS011;4561;47.450;7.516;2023-03-03T08:45:51;59.63;;;44.63;;
9052;SDS011;4561;47.450;7.516;2023-03-03T08:49:13;61.13;;;45.87;;
9052;SDS011;4561;47.450;7.516;2023-03-03T08:52:33;61.37;;;46.10;;
9052;SDS011;4561;47.450;7.516;2023-03-03T08:55:54;64.47;;;44.23;;
9052;SDS011;4561;47.450;7.516;2023-03-03T08:59:14;59.23;;;45.10;;
9052;SDS011;4561;47.450;7.516;2023-03-03T09:02:35;58.60;;;42.80;;
9052;SDS011;4561;47.450;7.516;2023-03-03T09:05:55;59.37;;;44.90;;
9052;SDS011;4561;47.450;7.516;2023-03-03T09:09:16;58.93;;;44.37;;
9052;SDS011;4561;47.450;7.516;2023-03-03T09:12:40;62.03;;;44.03;;
9052;SDS011;4561;47.450;7.516;2023-03-03T09:16:13;61.70;;;44.43;;
9052;SDS011;4561;47.450;7.516;2023-03-03T09:19:34;60.03;;;45.47;;
9052;SDS011;4561;47.450;7.516;2023-03-03T09:22:56;64.23;;;46.27;;
9052;SDS011;4561;47.450;7.516;2023-03-03T09:33:46;62.53;;;44.70;;
9052;SDS011;4561;47.450;7.516;2023-03-03T09:37:14;61.40;;;43.83;;
9052;SDS011;4561;47.450;7.516;2023-03-03T09:44:51;62.83;;;45.40;;
9052;SDS011;4561;47.450;7.516;2023-03-03T10:02:36;57.77;;;43.17;;
9052;SDS011;4561;47.450;7.516;2023-03-03T10:13:33;61.23;;;44.07;;
9052;SDS011;4561;47.450;7.516;2023-03-03T10:17:51;57.83;;;43.23;;
9052;SDS011;4561;47.450;7.516;2023-03-03T10:21:43;58.47;;;43.67;;
9052;SDS011;4561;47.450;7.516;2023-03-03T11:01:46;57.03;;;42.37;;
9052;SDS011;4561;47.450;7.516;2023-03-03T11:08:55;63.43;;;41.77;;
9052;SDS011;4561;47.450;7.516;2023-03-03T11:19:06;58.40;;;42.03;;
9052;SDS011;4561;47.450;7.516;2023-03-03T11:37:34;48.87;;;39.50;;
9052;SDS011;4561;47.450;7.516;2023-03-03T11:40:57;43.77;;;37.27;;
9052;SDS011;4561;47.450;7.516;2023-03-03T11:58:33;52.27;;;40.93;;
9052;SDS011;4561;47.450;7.516;2023-03-03T12:09:48;49.90;;;39.70;;
9052;SDS011;4561;47.450;7.516;2023-03-03T12:31:23;50.70;;;40.63;;
9052;SDS011;4561;47.450;7.516;2023-03-03T12:34:55;50.13;;;39.83;;
9052;SDS011;4561;47.450;7.516;2023-03-03T12:41:49;50.17;;;39.53;;
9052;SDS011;4561;47.450;7.516;2023-03-03T12:48:56;52.03;;;37.97;;
9052;SDS011;4561;47.450;7.516;2023-03-03T12:56:17;47.93;;;39.07;;
9052;SDS011;4561;47.450;7.516;2023-03-03T13:03:51;50.50;;;38.20;;
9052;SDS011;4561;47.450;7.516;2023-03-03T13:10:50;50.03;;;38.27;;
9052;SDS011;4561;47.450;7.516;2023-03-03T13:17:45;46.17;;;37.97;;
9052;SDS011;4561;47.450;7.516;2023-03-03T13:32:19;46.23;;;36.40;;
9052;SDS011;4561;47.450;7.516;2023-03-03T13:35:43;49.17;;;38.30;;
9052;SDS011;4561;47.450;7.516;2023-03-03T13:39:39;50.60;;;39.53;;
9052;SDS011;4561;47.450;7.516;2023-03-03T13:42:58;51.43;;;41.07;;
9052;SDS011;4561;47.450;7.516;2023-03-03T13:46:39;52.30;;;41.10;;
9052;SDS011;4561;47.450;7.516;2023-03-03T14:01:13;49.93;;;40.30;;
9052;SDS011;4561;47.450;7.516;2023-03-03T14:19:51;51.80;;;40.33;;
9052;SDS011;4561;47.450;7.516;2023-03-03T14:27:20;51.53;;;39.90;;
9052;SDS011;4561;47.450;7.516;2023-03-03T14:30:43;53.53;;;41.50;;
9052;SDS011;4561;47.450;7.516;2023-03-03T14:37:43;56.10;;;42.83;;
9052;SDS011;4561;47.450;7.516;2023-03-03T14:44:30;54.60;;;42.30;;
9052;SDS011;4561;47.450;7.516;2023-03-03T14:47:55;56.03;;;41.87;;
9052;SDS011;4561;47.450;7.516;2023-03-03T14:51:24;54.67;;;41.47;;
9052;SDS011;4561;47.450;7.516;2023-03-03T14:54:48;54.67;;;42.00;;
9052;SDS011;4561;47.450;7.516;2023-03-03T14:58:23;55.47;;;41.63;;
9052;SDS011;4561;47.450;7.516;2023-03-03T15:05:35;52.80;;;42.07;;
9052;SDS011;4561;47.450;7.516;2023-03-03T15:08:55;53.97;;;41.23;;
9052;SDS011;4561;47.450;7.516;2023-03-03T15:12:26;58.53;;;43.50;;
9052;SDS011;4561;47.450;7.516;2023-03-03T15:27:05;49.10;;;39.23;;
9052;SDS011;4561;47.450;7.516;2023-03-03T15:45:20;54.50;;;40.73;;
9052;SDS011;4561;47.450;7.516;2023-03-03T16:32:20;57.03;;;42.60;;
9052;SDS011;4561;47.450;7.516;2023-03-03T16:42:50;53.93;;;40.53;;
9052;SDS011;4561;47.450;7.516;2023-03-03T16:49:52;56.87;;;41.60;;
9052;SDS011;4561;47.450;7.516;2023-03-03T16:57:42;58.13;;;40.73;;
9052;SDS011;4561;47.450;7.516;2023-03-03T17:00:39;55.50;;;42.33;;
9052;SDS011;4561;47.450;7.516;2023-03-03T17:04:16;53.33;;;42.33;;
9052;SDS011;4561;47.450;7.516;2023-03-03T17:30:40;56.40;;;42.40;;
9052;SDS011;4561;47.450;7.516;2023-03-03T17:33:52;56.43;;;40.80;;
9052;SDS011;4561;47.450;7.516;2023-03-03T17:48:19;54.10;;;42.67;;
9052;SDS011;4561;47.450;7.516;2023-03-03T17:51:53;55.90;;;40.27;;
9052;SDS011;4561;47.450;7.516;2023-03-03T18:27:46;59.60;;;42.17;;
9052;SDS011;4561;47.450;7.516;2023-03-03T18:31:43;56.83;;;43.23;;
9052;SDS011;4561;47.450;7.516;2023-03-03T18:38:54;59.33;;;43.53;;
9052;SDS011;4561;47.450;7.516;2023-03-03T18:49:03;58.87;;;45.63;;
9052;SDS011;4561;47.450;7.516;2023-03-03T18:52:26;61.60;;;46.00;;
9052;SDS011;4561;47.450;7.516;2023-03-03T18:55:49;61.40;;;46.17;;
9052;SDS011;4561;47.450;7.516;2023-03-03T19:02:50;59.83;;;44.67;;
9052;SDS011;4561;47.450;7.516;2023-03-03T19:13:38;58.40;;;44.03;;
9052;SDS011;4561;47.450;7.516;2023-03-03T19:20:42;57.30;;;43.17;;
9052;SDS011;4561;47.450;7.516;2023-03-03T19:24:05;58.17;;;44.03;;
9052;SDS011;4561;47.450;7.516;2023-03-03T19:31:20;59.23;;;45.90;;
9052;SDS011;4561;47.450;7.516;2023-03-03T19:34:53;56.00;;;43.70;;
9052;SDS011;4561;47.450;7.516;2023-03-03T19:42:06;54.43;;;42.90;;
9052;SDS011;4561;47.450;7.516;2023-03-03T20:00:22;60.90;;;45.20;;
9052;SDS011;4561;47.450;7.516;2023-03-03T20:03:53;59.00;;;45.10;;
9052;SDS011;4561;47.450;7.516;2023-03-03T20:07:26;60.53;;;45.27;;
9052;SDS011;4561;47.450;7.516;2023-03-03T20:10:54;59.33;;;44.87;;
9052;SDS011;4561;47.450;7.516;2023-03-03T20:18:02;58.47;;;44.07;;
9052;SDS011;4561;47.450;7.516;2023-03-03T20:25:58;59.77;;;43.97;;
9052;SDS011;4561;47.450;7.516;2023-03-03T21:06:18;62.67;;;47.23;;
9052;SDS011;4561;47.450;7.516;2023-03-03T21:09:40;64.40;;;46.40;;
9052;SDS011;4561;47.450;7.516;2023-03-03T21:13:38;65.87;;;46.70;;
9052;SDS011;4561;47.450;7.516;2023-03-03T21:16:58;64.20;;;46.37;;
9052;SDS011;4561;47.450;7.516;2023-03-03T21:20:26;63.27;;;45.63;;
9052;SDS011;4561;47.450;7.516;2023-03-03T21:23:50;64.17;;;46.07;;
9052;SDS011;4561;47.450;7.516;2023-03-03T21:27:29;59.77;;;44.07;;
9052;SDS011;4561;47.450;7.516;2023-03-03T21:31:01;59.27;;;44.97;;
9052;SDS011;4561;47.450;7.516;2023-03-03T21:37:55;61.73;;;45.73;;
9052;SDS011;4561;47.450;7.516;2023-03-03T21:41:17;63.73;;;44.77;;
9052;SDS011;4561;47.450;7.516;2023-03-03T21:44:39;63.03;;;46.97;;
9052;SDS011;4561;47.450;7.516;2023-03-03T21:48:03;64.87;;;48.33;;
9052;SDS011;4561;47.450;7.516;2023-03-03T21:51:23;63.40;;;46.37;;
9052;SDS011;4561;47.450;7.516;2023-03-03T21:54:48;65.43;;;46.07;;
9052;SDS011;4561;47.450;7.516;2023-03-03T21:58:10;66.57;;;46.17;;
9052;SDS011;4561;47.450;7.516;2023-03-03T22:01:30;60.80;;;46.30;;
9052;SDS011;4561;47.450;7.516;2023-03-03T22:04:50;62.43;;;44.60;;
9052;SDS011;4561;47.450;7.516;2023-03-03T22:08:11;67.03;;;47.67;;
9052;SDS011;4561;47.450;7.516;2023-03-03T22:11:31;64.77;;;46.67;;
9052;SDS011;4561;47.450;7.516;2023-03-03T22:14:52;63.70;;;46.73;;
9052;SDS011;4561;47.450;7.516;2023-03-03T22:18:13;65.23;;;47.10;;
9052;SDS011;4561;47.450;7.516;2023-03-03T22:21:35;65.37;;;48.73;;
9052;SDS011;4561;47.450;7.516;2023-03-03T22:24:56;66.10;;;48.50;;
9052;SDS011;4561;47.450;7.516;2023-03-03T22:28:16;65.07;;;47.97;;
9052;SDS011;4561;47.450;7.516;2023-03-03T22:31:36;65.83;;;49.30;;
9052;SDS011;4561;47.450;7.516;2023-03-03T22:34:57;64.20;;;48.73;;
9052;SDS011;4561;47.450;7.516;2023-03-03T22:38:17;64.73;;;48.03;;
9052;SDS011;4561;47.450;7.516;2023-03-03T22:41:38;67.13;;;47.17;;
9052;SDS011;4561;47.450;7.516;2023-03-03T22:44:58;69.43;;;48.60;;
9052;SDS011;4561;47.450;7.516;2023-03-03T22:48:18;65.97;;;48.50;;
9052;SDS011;4561;47.450;7.516;2023-03-03T22:51:39;68.87;;;49.30;;
9052;SDS011;4561;47.450;7.516;2023-03-03T22:54:59;65.03;;;47.47;;
9052;SDS011;4561;47.450;7.516;2023-03-03T22:58:20;67.23;;;49.07;;
9052;SDS011;4561;47.450;7.516;2023-03-03T23:01:42;64.30;;;48.67;;
9052;SDS011;4561;47.450;7.516;2023-03-03T23:05:03;63.23;;;49.80;;
9052;SDS011;4561;47.450;7.516;2023-03-03T23:08:27;67.47;;;49.60;;
9052;SDS011;4561;47.450;7.516;2023-03-03T23:11:47;66.70;;;48.83;;
9052;SDS011;4561;47.450;7.516;2023-03-03T23:15:08;72.77;;;48.87;;
9052;SDS011;4561;47.450;7.516;2023-03-03T23:18:32;71.17;;;51.43;;
9052;SDS011;4561;47.450;7.516;2023-03-03T23:21:54;64.63;;;49.70;;
9052;SDS011;4561;47.450;7.516;2023-03-03T23:25:15;66.83;;;48.83;;
9052;SDS011;4561;47.450;7.516;2023-03-03T23:28:36;65.27;;;49.03;;
9052;SDS011;4561;47.450;7.516;2023-03-03T23:31:59;67.40;;;47.60;;
9052;SDS011;4561;47.450;7.516;2023-03-03T23:35:20;66.63;;;49.70;;
9052;SDS011;4561;47.450;7.516;2023-03-03T23:38:40;63.03;;;48.10;;
9052;SDS011;4561;47.450;7.516;2023-03-03T23:42:01;63.83;;;48.50;;
9052;SDS011;4561;47.450;7.516;2023-03-03T23:45:21;62.40;;;47.67;;
9052;SDS011;4561;47.450;7.516;2023-03-03T23:48:42;64.80;;;48.80;;
9052;SDS011;4561;47.450;7.516;2023-03-03T23:52:05;63.07;;;48.13;;
9052;SDS011;4561;47.450;7.516;2023-03-03T23:55:25;60.20;;;46.50;;
9052;SDS011;4561;47.450;7.516;2023-03-03T23:58:49;64.07;;;46.90;;
